Time,TemperatureF,DewpointF,PressureIn,WindDirection,WindDirectionDegrees,WindSpeedMPH,WindSpeedGustMPH,Humidity,HourlyPrecipIn,Conditions,Clouds,dailyrainin,SoftwareType,DateUTC
2013-02-25 00:00:00,33.8,32.3,29.90,WNW,283,3.0,5.0,94,0.00,,,0.05,Wunderground v.1.15,2013-02-25 05:00:00,
2013-02-25 00:05:00,33.9,32.4,29.90,NNE,19,3.0,5.0,94,0.00,,,0.00,Wunderground v.1.15,2013-02-25 05:05:00,
2013-02-25 00:10:00,33.9,32.4,29.90,West,263,3.0,3.0,94,0.00,,,0.00,Wunderground v.1.15,2013-02-25 05:10:00,
2013-02-25 00:15:00,33.8,32.3,29.90,WSW,239,3.0,3.0,94,0.00,,,0.00,Wunderground v.1.15,2013-02-25 05:15:00,
2013-02-25 00:20:00,33.9,32.4,29.90,WNW,300,3.0,4.0,94,0.00,,,0.00,Wunderground v.1.15,2013-02-25 05:20:00,
2013-02-25 00:25:00,33.9,32.4,29.90,WNW,285,3.0,4.0,94,0.00,,,0.00,Wunderground v.1.15,2013-02-25 05:25:00,
2013-02-25 00:30:00,33.8,32.3,29.91,NW,322,3.0,3.0,94,0.00,,,0.00,Wunderground v.1.15,2013-02-25 05:30:00,
2013-02-25 08:30:00,34.7,29.2,30.07,NNW,345,6.0,6.0,80,0.00,,,0.00,Wunderground v.1.15,2013-02-25 13:30:00,
2013-02-25 08:40:00,36.5,31.2,30.08,North,354,4.0,5.0,81,0.00,,,0.00,Wunderground v.1.15,2013-02-25 13:40:00,
2013-02-25 08:45:00,36.6,30.7,30.08,WSW,253,4.0,5.0,79,0.00,,,0.00,Wunderground v.1.15,2013-02-25 13:45:00,
2013-02-25 08:50:00,36.7,30.8,30.08,North,355,4.0,4.0,79,0.00,,,0.00,Wunderground v.1.15,2013-02-25 13:50:00,
2013-02-25 09:00:00,37.5,31.6,30.08,WNW,303,2.0,3.0,79,0.00,,,0.00,Wunderground v.1.15,2013-02-25 14:00:00,
2013-02-25 09:05:00,37.8,31.2,30.08,NW,316,3.0,3.0,77,0.00,,,0.00,Wunderground v.1.15,2013-02-25 14:05:00,
2013-02-25 09:15:00,38.8,32.8,30.08,NNE,20,2.0,4.0,79,0.00,,,0.00,Wunderground v.1.15,2013-02-25 14:15:00,
2013-02-25 09:20:00,38.7,32.1,30.08,NNW,339,3.0,3.0,77,0.00,,,0.00,Wunderground v.1.15,2013-02-25 14:20:00,
2013-02-25 09:25:00,38.7,31.8,30.08,NNE,30,4.0,4.0,76,0.00,,,0.00,Wunderground v.1.15,2013-02-25 14:25:00,
2013-02-25 09:30:00,38.8,32.2,30.08,NNW,342,4.0,4.0,77,0.00,,,0.00,Wunderground v.1.15,2013-02-25 14:30:00,
2013-02-25 09:35:00,38.9,32.0,30.08,NNE,20,4.0,4.0,76,0.00,,,0.00,Wunderground v.1.15,2013-02-25 14:35:00,
2013-02-25 09:40:00,39.4,32.8,30.08,North,4,4.0,4.0,77,0.00,,,0.00,Wunderground v.1.15,2013-02-25 14:40:00,
2013-02-25 09:50:00,39.2,31.9,30.07,NE,37,5.0,6.0,75,0.00,,,0.00,Wunderground v.1.15,2013-02-25 14:50:00,
2013-02-25 09:55:00,39.3,32.7,30.08,NE,35,6.0,6.0,77,0.00,,,0.00,Wunderground v.1.15,2013-02-25 14:55:00,
2013-02-25 10:00:00,39.6,32.7,30.08,ENE,75,5.0,5.0,76,0.00,,,0.00,Wunderground v.1.15,2013-02-25 15:00:00,
2013-02-25 10:05:00,39.7,33.1,30.08,NNE,15,4.0,6.0,77,0.00,,,0.00,Wunderground v.1.15,2013-02-25 15:05:00,
2013-02-25 10:10:00,39.7,32.8,30.08,NNE,18,4.0,5.0,76,0.00,,,0.00,Wunderground v.1.15,2013-02-25 15:10:00,
2013-02-25 10:15:00,39.7,32.8,30.08,NNE,20,5.0,7.0,76,0.00,,,0.00,Wunderground v.1.15,2013-02-25 15:15:00,
2013-02-25 10:20:00,40.0,33.4,30.08,NNE,30,5.0,6.0,77,0.00,,,0.00,Wunderground v.1.15,2013-02-25 15:20:00,
2013-02-25 10:25:00,40.3,33.3,30.08,WNW,300,4.0,6.0,76,0.00,,,0.00,Wunderground v.1.15,2013-02-25 15:25:00,
2013-02-25 10:30:00,40.6,33.0,30.09,North,358,3.0,7.0,74,0.00,,,0.00,Wunderground v.1.15,2013-02-25 15:30:00,
2013-02-25 10:35:00,40.7,32.7,30.09,NE,54,3.0,7.0,73,0.00,,,0.00,Wunderground v.1.15,2013-02-25 15:35:00,
2013-02-25 10:40:00,40.8,32.8,30.09,NNW,329,3.0,5.0,73,0.00,,,0.00,Wunderground v.1.15,2013-02-25 15:40:00,
2013-02-25 10:45:00,40.7,33.1,30.09,NE,38,4.0,5.0,74,0.00,,,0.00,Wunderground v.1.15,2013-02-25 15:45:00,
2013-02-25 10:50:00,40.9,33.2,30.09,NE,39,3.0,7.0,74,0.00,,,0.00,Wunderground v.1.15,2013-02-25 15:50:00,
2013-02-25 10:55:00,40.9,33.2,30.09,NNE,33,3.0,7.0,74,0.00,,,0.00,Wunderground v.1.15,2013-02-25 15:55:00,
2013-02-25 12:50:00,39.5,33.2,30.11,WSW,240,5.0,5.0,78,0.00,,,0.00,Wunderground v.1.15,2013-02-25 17:50:00,
2013-02-25 12:55:00,39.3,33.3,30.11,SSE,167,5.0,5.0,79,0.00,,,0.00,Wunderground v.1.15,2013-02-25 17:55:00,
2013-02-25 13:00:00,39.2,33.2,30.11,West,260,4.0,4.0,79,0.00,,,0.00,Wunderground v.1.15,2013-02-25 18:00:00,
2013-02-25 13:05:00,39.1,33.5,30.11,SW,236,4.0,4.0,80,0.00,,,0.00,Wunderground v.1.15,2013-02-25 18:05:00,
2013-02-25 13:10:00,39.1,33.5,30.12,WSW,256,5.0,6.0,80,0.00,,,0.00,Wunderground v.1.15,2013-02-25 18:10:00,
2013-02-25 13:15:00,39.1,33.1,30.11,South,170,5.0,6.0,79,0.00,,,0.00,Wunderground v.1.15,2013-02-25 18:15:00,
2013-02-25 13:20:00,39.3,33.3,30.11,SW,215,4.0,4.0,79,0.00,,,0.00,Wunderground v.1.15,2013-02-25 18:20:00,
2013-02-25 13:25:00,39.5,33.5,30.11,WSW,256,3.0,5.0,79,0.00,,,0.00,Wunderground v.1.15,2013-02-25 18:25:00,
2013-02-25 13:30:00,39.3,33.0,30.12,SSW,207,3.0,3.0,78,0.00,,,0.00,Wunderground v.1.15,2013-02-25 18:30:00,
2013-02-25 13:35:00,39.3,33.3,30.12,SW,226,4.0,4.0,79,0.00,,,0.00,Wunderground v.1.15,2013-02-25 18:35:00,
2013-02-25 13:40:00,39.3,33.0,30.12,SSW,212,4.0,4.0,78,0.00,,,0.00,Wunderground v.1.15,2013-02-25 18:40:00,
2013-02-25 13:50:00,39.1,33.1,30.13,South,183,5.0,5.0,79,0.00,,,0.00,Wunderground v.1.15,2013-02-25 18:50:00,
2013-02-25 14:00:00,39.1,33.5,30.13,SSW,212,5.0,5.0,80,0.00,,,0.00,Wunderground v.1.15,2013-02-25 19:00:00,
2013-02-25 14:05:00,39.1,33.1,30.12,SW,233,5.0,5.0,79,0.00,,,0.00,Wunderground v.1.15,2013-02-25 19:05:00,
2013-02-25 14:10:00,39.2,33.9,30.13,South,186,4.0,4.0,81,0.00,,,0.00,Wunderground v.1.15,2013-02-25 19:10:00,
2013-02-25 14:15:00,39.3,33.6,30.12,WSW,243,3.0,4.0,80,0.00,,,0.00,Wunderground v.1.15,2013-02-25 19:15:00,
2013-02-25 14:20:00,39.2,33.9,30.13,SW,231,3.0,4.0,81,0.00,,,0.00,Wunderground v.1.15,2013-02-25 19:20:00,
2013-02-25 14:25:00,39.3,34.0,30.13,SW,231,3.0,4.0,81,0.00,,,0.00,Wunderground v.1.15,2013-02-25 19:25:00,
2013-02-25 14:30:00,39.3,33.3,30.12,SW,232,3.0,3.0,79,0.00,,,0.00,Wunderground v.1.15,2013-02-25 19:30:00,
2013-02-25 14:40:00,39.2,33.9,30.13,WSW,256,4.0,4.0,81,0.00,,,0.00,Wunderground v.1.15,2013-02-25 19:40:00,
2013-02-25 14:45:00,39.1,33.5,30.13,WSW,250,5.0,5.0,80,0.00,,,0.00,Wunderground v.1.15,2013-02-25 19:45:00,
2013-02-25 14:50:00,39.1,33.8,30.14,SW,222,4.0,4.0,81,0.00,,,0.00,Wunderground v.1.15,2013-02-25 19:50:00,
2013-02-25 14:55:00,39.2,33.9,30.14,West,266,4.0,4.0,81,0.00,,,0.00,Wunderground v.1.15,2013-02-25 19:55:00,
2013-02-25 15:00:00,39.3,33.6,30.14,SW,221,3.0,3.0,80,0.00,,,0.00,Wunderground v.1.15,2013-02-25 20:00:00,
2013-02-25 15:05:00,39.3,33.0,30.14,SW,229,3.0,3.0,78,0.00,,,0.00,Wunderground v.1.15,2013-02-25 20:05:00,
2013-02-25 15:10:00,39.4,33.7,30.14,WSW,253,2.0,2.0,80,0.00,,,0.00,Wunderground v.1.15,2013-02-25 20:10:00,
2013-02-25 15:15:00,39.3,34.3,30.14,West,270,2.0,2.0,82,0.00,,,0.00,Wunderground v.1.15,2013-02-25 20:15:00,
2013-02-25 15:20:00,39.3,34.3,30.14,WNW,287,2.0,2.0,82,0.00,,,0.00,Wunderground v.1.15,2013-02-25 20:20:00,
2013-02-25 15:25:00,39.3,34.3,30.14,WNW,300,2.0,2.0,82,0.00,,,0.00,Wunderground v.1.15,2013-02-25 20:25:00,
2013-02-25 15:30:00,39.2,33.9,30.14,WSW,239,3.0,4.0,81,0.00,,,0.00,Wunderground v.1.15,2013-02-25 20:30:00,
2013-02-25 15:35:00,39.3,34.3,30.15,WSW,252,3.0,4.0,82,0.00,,,0.00,Wunderground v.1.15,2013-02-25 20:35:00,
2013-02-25 15:40:00,39.3,34.0,30.15,WNW,288,2.0,2.0,81,0.00,,,0.00,Wunderground v.1.15,2013-02-25 20:40:00,
2013-02-25 15:45:00,39.3,34.0,30.15,SW,233,2.0,3.0,81,0.00,,,0.00,Wunderground v.1.15,2013-02-25 20:45:00,
2013-02-25 15:55:00,39.6,33.9,30.16,SW,226,2.0,2.0,80,0.00,,,0.00,Wunderground v.1.15,2013-02-25 20:55:00,
2013-02-25 16:00:00,39.8,34.4,30.16,WSW,249,1.0,1.0,81,0.00,,,0.00,Wunderground v.1.15,2013-02-25 21:00:00,
2013-02-25 16:05:00,39.9,34.5,30.16,SW,222,1.0,1.0,81,0.00,,,0.00,Wunderground v.1.15,2013-02-25 21:05:00,
2013-02-25 16:15:00,40.5,34.8,30.16,SSW,193,0.0,1.0,80,0.00,,,0.00,Wunderground v.1.15,2013-02-25 21:15:00,
2013-02-25 16:20:00,40.8,34.5,30.16,NNE,23,0.0,0.0,78,0.00,,,0.00,Wunderground v.1.15,2013-02-25 21:20:00,
2013-02-25 16:30:00,41.0,34.0,30.16,NE,53,1.0,1.0,76,0.00,,,0.00,Wunderground v.1.15,2013-02-25 21:30:00,
2013-02-25 16:35:00,41.0,34.3,30.15,NE,49,1.0,2.0,77,0.00,,,0.00,Wunderground v.1.15,2013-02-25 21:35:00,
2013-02-25 16:45:00,40.9,33.2,30.16,NNE,22,1.0,1.0,74,0.00,,,0.00,Wunderground v.1.15,2013-02-25 21:45:00,
2013-02-25 16:50:00,41.0,33.3,30.16,NNE,30,1.0,1.0,74,0.00,,,0.00,Wunderground v.1.15,2013-02-25 21:50:00,
2013-02-25 16:55:00,41.1,33.4,30.16,NE,37,2.0,2.0,74,0.00,,,0.00,Wunderground v.1.15,2013-02-25 21:55:00,
2013-02-25 17:00:00,41.2,33.2,30.17,NNE,32,2.0,2.0,73,0.00,,,0.00,Wunderground v.1.15,2013-02-25 22:00:00,
2013-02-25 17:05:00,41.4,33.4,30.17,North,359,2.0,2.0,73,0.00,,,0.00,Wunderground v.1.15,2013-02-25 22:05:00,
2013-02-25 17:15:00,41.5,33.1,30.17,North,359,1.0,2.0,72,0.00,,,0.00,Wunderground v.1.15,2013-02-25 22:15:00,
2013-02-25 17:20:00,41.1,33.1,30.16,NE,37,0.0,1.0,73,0.00,,,0.00,Wunderground v.1.15,2013-02-25 22:20:00,
2013-02-25 17:25:00,40.7,33.1,30.16,NNE,33,1.0,1.0,74,0.00,,,0.00,Wunderground v.1.15,2013-02-25 22:25:00,
2013-02-25 17:30:00,40.3,33.0,30.16,NE,44,2.0,2.0,75,0.00,,,0.00,Wunderground v.1.15,2013-02-25 22:30:00,
2013-02-25 17:35:00,40.1,33.5,30.16,NNE,33,2.0,3.0,77,0.00,,,0.00,Wunderground v.1.15,2013-02-25 22:35:00,
2013-02-25 17:40:00,39.8,33.2,30.16,WNW,291,2.0,2.0,77,0.00,,,0.00,Wunderground v.1.15,2013-02-25 22:40:00,
2013-02-25 17:45:00,39.6,33.0,30.16,ENE,58,1.0,2.0,77,0.00,,,0.00,Wunderground v.1.15,2013-02-25 22:45:00,
2013-02-25 17:50:00,39.4,32.8,30.16,NNE,33,0.0,1.0,77,0.00,,,0.00,Wunderground v.1.15,2013-02-25 22:50:00,
2013-02-25 17:55:00,39.2,32.6,30.17,NNE,25,0.0,1.0,77,0.00,,,0.00,Wunderground v.1.15,2013-02-25 22:55:00,
2013-02-25 18:00:00,39.0,32.7,30.17,NNE,26,0.0,0.0,78,0.00,,,0.00,Wunderground v.1.15,2013-02-25 23:00:00,
2013-02-25 18:05:00,38.7,32.4,30.17,NNE,25,0.0,0.0,78,0.00,,,0.00,Wunderground v.1.15,2013-02-25 23:05:00,
2013-02-25 18:10:00,38.3,32.4,30.17,NNW,328,0.0,0.0,79,0.00,,,0.00,Wunderground v.1.15,2013-02-25 23:10:00,
2013-02-25 18:15:00,38.3,32.4,30.18,NNW,328,0.0,0.0,79,0.00,,,0.00,Wunderground v.1.15,2013-02-25 23:15:00,
2013-02-25 18:25:00,38.4,32.5,30.18,NNW,327,0.0,0.0,79,0.00,,,0.00,Wunderground v.1.15,2013-02-25 23:25:00,
2013-02-25 18:35:00,38.5,32.6,30.19,NW,305,0.0,1.0,79,0.00,,,0.00,Wunderground v.1.15,2013-02-25 23:35:00,
2013-02-25 18:40:00,38.4,32.5,30.19,WNW,285,1.0,2.0,79,0.00,,,0.00,Wunderground v.1.15,2013-02-25 23:40:00,
2013-02-25 18:50:00,38.4,32.5,30.20,West,280,2.0,2.0,79,0.00,,,0.00,Wunderground v.1.15,2013-02-25 23:50:00,
2013-02-25 18:55:00,38.2,33.2,30.21,WNW,283,2.0,3.0,82,0.00,,,0.00,Wunderground v.1.15,2013-02-25 23:55:00,
2013-02-25 19:00:00,38.0,33.3,30.21,WNW,293,3.0,3.0,83,0.00,,,0.00,Wunderground v.1.15,2013-02-26 00:00:00,
2013-02-25 19:05:00,38.0,33.0,30.21,WNW,302,2.0,3.0,82,0.00,,,0.00,Wunderground v.1.15,2013-02-26 00:05:00,
2013-02-25 19:10:00,38.2,32.9,30.21,WNW,302,1.0,1.0,81,0.00,,,0.00,Wunderground v.1.15,2013-02-26 00:10:00,
2013-02-25 19:15:00,38.4,32.5,30.22,WNW,302,1.0,1.0,79,0.00,,,0.00,Wunderground v.1.15,2013-02-26 00:15:00,
2013-02-25 19:20:00,38.6,32.3,30.22,NW,311,0.0,1.0,78,0.00,,,0.00,Wunderground v.1.15,2013-02-26 00:20:00,
2013-02-25 19:30:00,38.7,32.1,30.22,NW,305,1.0,1.0,77,0.00,,,0.00,Wunderground v.1.15,2013-02-26 00:30:00,
2013-02-25 19:35:00,38.7,32.1,30.22,NW,305,1.0,1.0,77,0.00,,,0.00,Wunderground v.1.15,2013-02-26 00:35:00,
2013-02-25 19:40:00,38.7,32.1,30.22,WNW,301,0.0,1.0,77,0.00,,,0.00,Wunderground v.1.15,2013-02-26 00:40:00,
2013-02-25 19:45:00,38.7,32.1,30.23,WNW,301,0.0,1.0,77,0.00,,,0.00,Wunderground v.1.15,2013-02-26 00:45:00,
2013-02-25 19:50:00,38.7,32.1,30.23,WNW,301,0.0,0.0,77,0.00,,,0.00,Wunderground v.1.15,2013-02-26 00:50:00,
2013-02-25 20:00:00,38.6,32.0,30.23,West,280,1.0,1.0,77,0.00,,,0.00,Wunderground v.1.15,2013-02-26 01:00:00,
2013-02-25 20:05:00,38.5,31.9,30.23,West,281,1.0,1.0,77,0.00,,,0.00,Wunderground v.1.15,2013-02-26 01:05:00,
2013-02-25 20:15:00,38.5,31.9,30.23,West,281,1.0,1.0,77,0.00,,,0.00,Wunderground v.1.15,2013-02-26 01:15:00,
2013-02-25 20:20:00,38.4,31.8,30.23,West,281,1.0,1.0,77,0.00,,,0.00,Wunderground v.1.15,2013-02-26 01:20:00,
2013-02-25 20:25:00,38.1,31.5,30.23,West,281,0.0,1.0,77,0.00,,,0.00,Wunderground v.1.15,2013-02-26 01:25:00,
2013-02-25 20:35:00,38.1,31.8,30.23,West,281,0.0,0.0,78,0.00,,,0.00,Wunderground v.1.15,2013-02-26 01:35:00,
2013-02-25 20:40:00,38.1,31.8,30.23,West,281,0.0,0.0,78,0.00,,,0.00,Wunderground v.1.15,2013-02-26 01:40:00,
2013-02-25 20:45:00,38.2,31.9,30.23,West,281,0.0,0.0,78,0.00,,,0.00,Wunderground v.1.15,2013-02-26 01:45:00,
2013-02-25 20:50:00,38.1,31.5,30.23,West,281,0.0,0.0,77,0.00,,,0.00,Wunderground v.1.15,2013-02-26 01:50:00,
2013-02-25 21:00:00,38.0,32.1,30.23,West,281,0.0,0.0,79,0.00,,,0.00,Wunderground v.1.15,2013-02-26 02:00:00,
2013-02-25 21:05:00,38.0,32.1,30.23,West,281,0.0,0.0,79,0.00,,,0.00,Wunderground v.1.15,2013-02-26 02:05:00,
2013-02-25 21:15:00,38.0,32.1,30.23,West,281,0.0,0.0,79,0.00,,,0.00,Wunderground v.1.15,2013-02-26 02:15:00,
2013-02-25 21:20:00,38.1,32.2,30.23,West,281,0.0,0.0,79,0.00,,,0.00,Wunderground v.1.15,2013-02-26 02:20:00,
2013-02-25 21:30:00,37.9,32.0,30.23,West,281,0.0,0.0,79,0.00,,,0.00,Wunderground v.1.15,2013-02-26 02:30:00,
2013-02-25 21:35:00,37.8,32.2,30.23,West,281,0.0,0.0,80,0.00,,,0.00,Wunderground v.1.15,2013-02-26 02:35:00,
2013-02-25 21:45:00,37.5,33.1,30.23,West,281,0.0,0.0,84,0.00,,,0.00,Wunderground v.1.15,2013-02-26 02:45:00,
2013-02-25 21:55:00,37.2,33.4,30.23,SSW,200,0.0,1.0,86,0.00,,,0.00,Wunderground v.1.15,2013-02-26 02:55:00,
2013-02-25 22:00:00,37.1,33.6,30.23,SSW,200,1.0,1.0,87,0.00,,,0.00,Wunderground v.1.15,2013-02-26 03:00:00,
2013-02-25 22:05:00,37.0,33.5,30.23,SSW,200,1.0,1.0,87,0.00,,,0.00,Wunderground v.1.15,2013-02-26 03:05:00,
2013-02-25 22:10:00,37.1,34.2,30.23,SSW,200,0.0,0.0,89,0.00,,,0.00,Wunderground v.1.15,2013-02-26 03:10:00,
2013-02-25 22:15:00,37.2,34.5,30.23,SSW,200,0.0,0.0,90,0.00,,,0.00,Wunderground v.1.15,2013-02-26 03:15:00,
2013-02-25 22:20:00,37.2,34.5,30.24,SW,217,0.0,1.0,90,0.00,,,0.00,Wunderground v.1.15,2013-02-26 03:20:00,
2013-02-25 22:25:00,37.2,34.5,30.24,SW,217,0.0,1.0,90,0.00,,,0.00,Wunderground v.1.15,2013-02-26 03:25:00,
2013-02-25 22:35:00,37.3,34.9,30.24,SSW,198,0.0,1.0,91,0.00,,,0.00,Wunderground v.1.15,2013-02-26 03:35:00,
2013-02-25 22:40:00,37.3,34.9,30.24,SSW,203,1.0,1.0,91,0.00,,,0.00,Wunderground v.1.15,2013-02-26 03:40:00,
2013-02-25 22:45:00,37.5,35.1,30.24,SW,221,1.0,2.0,91,0.00,,,0.00,Wunderground v.1.15,2013-02-26 03:45:00,
2013-02-25 22:50:00,37.5,35.1,30.24,SW,235,2.0,2.0,91,0.00,,,0.00,Wunderground v.1.15,2013-02-26 03:50:00,
2013-02-25 23:00:00,37.5,35.1,30.24,SW,221,0.0,0.0,91,0.00,,,0.00,Wunderground v.1.15,2013-02-26 04:00:00,
2013-02-25 23:05:00,37.5,35.1,30.24,SW,221,0.0,0.0,91,0.00,,,0.00,Wunderground v.1.15,2013-02-26 04:05:00,
2013-02-25 23:10:00,37.5,35.1,30.24,SW,221,1.0,1.0,91,0.00,,,0.00,Wunderground v.1.15,2013-02-26 04:10:00,
2013-02-25 23:15:00,37.5,35.1,30.24,West,259,1.0,3.0,91,0.00,,,0.00,Wunderground v.1.15,2013-02-26 04:15:00,
2013-02-25 23:25:00,37.3,34.9,30.24,WNW,291,3.0,3.0,91,0.00,,,0.00,Wunderground v.1.15,2013-02-26 04:25:00,
2013-02-25 23:30:00,37.2,34.8,30.24,West,280,2.0,2.0,91,0.00,,,0.00,Wunderground v.1.15,2013-02-26 04:30:00,
2013-02-25 23:35:00,37.3,34.9,30.24,West,280,2.0,3.0,91,0.00,,,0.00,Wunderground v.1.15,2013-02-26 04:35:00,
2013-02-25 23:40:00,37.5,35.1,30.24,West,281,2.0,2.0,91,0.00,,,0.00,Wunderground v.1.15,2013-02-26 04:40:00,
2013-02-25 23:45:00,37.5,35.1,30.24,WNW,287,3.0,3.0,91,0.00,,,0.00,Wunderground v.1.15,2013-02-26 04:45:00,
2013-02-25 23:50:00,37.6,35.2,30.24,WNW,285,2.0,2.0,91,0.00,,,0.00,Wunderground v.1.15,2013-02-26 04:50:00,
2013-02-25 23:55:00,37.6,35.2,30.25,West,281,1.0,2.0,91,0.00,,,0.00,Wunderground v.1.15,2013-02-26 04:55:00,